Time;durP1;ratioP1;P1;durP2;ratioP2;P2;SDS_P1;SDS_P2;PMS_P1;PMS_P2;Temp;Humidity;BMP_temperature;BMP_pressure;BME280_temperature;BME280_humidity;BME280_pressure;Samples;Min_cycle;Max_cycle;Signal;HPM_P1;HPM_P2
2023/03/12 00:02:01;;;;;;;6.35;3.20;;;;;;;15.63;48.34;93330.41;5058498;28;20021;-90
2023/03/12 00:04:27;;;;;;;7.38;3.50;;;;;;;15.57;48.56;93329.81;5041771;28;20128;-91
2023/03/12 00:06:54;;;;;;;6.13;3.40;;;;;;;15.64;48.85;93337.22;5058456;28;20032;-91
2023/03/12 00:09:20;;;;;;;10.70;4.15;;;;;;;15.54;48.70;93338.38;5058209;28;20020;-91
2023/03/12 00:11:45;;;;;;;10.23;4.32;;;;;;;15.47;49.39;93338.91;5041932;28;20027;-90
2023/03/12 00:14:11;;;;;;;11.77;4.78;;;;;;;15.31;50.05;93340.59;5058343;28;20029;-91
2023/03/12 00:16:36;;;;;;;13.93;6.30;;;;;;;15.22;50.56;93340.66;5058128;28;20729;-91
2023/03/12 00:19:01;;;;;;;11.07;5.40;;;;;;;15.35;50.25;93341.50;5041755;28;20035;-91
2023/03/12 00:21:27;;;;;;;9.48;5.13;;;;;;;15.50;49.77;93348.81;5058225;28;20036;-90
2023/03/12 00:23:52;;;;;;;11.20;4.60;;;;;;;15.35;50.19;93355.47;5041758;28;20334;-91
2023/03/12 00:26:19;;;;;;;10.70;4.20;;;;;;;15.49;49.81;93365.75;5059271;28;20033;-90
2023/03/12 00:28:46;;;;;;;4.50;2.53;;;;;;;15.28;49.95;93371.03;5057883;28;20029;-91
2023/03/12 00:31:25;;;;;;;4.22;2.45;;;;;;;14.79;50.75;93382.78;5057935;28;20025;-90
2023/03/12 00:33:51;;;;;;;4.40;2.40;;;;;;;14.84;50.48;93382.59;5041600;28;20033;-90
2023/03/12 00:36:18;;;;;;;5.60;2.53;;;;;;;15.20;49.65;93383.19;5057920;28;20339;-91
2023/03/12 00:38:44;;;;;;;6.85;2.47;;;;;;;14.65;51.14;93390.88;5057705;28;20040;-90
2023/03/12 00:41:09;;;;;;;7.00;3.35;;;;;;;14.37;52.17;93393.91;5057739;28;20029;-90
2023/03/12 00:43:35;;;;;;;9.48;4.00;;;;;;;14.60;51.57;93392.91;5057767;28;20033;-91
2023/03/12 00:46:00;;;;;;;6.53;3.38;;;;;;;13.91;53.51;93401.44;5057781;28;20039;-91
2023/03/12 00:48:26;;;;;;;10.07;3.63;;;;;;;13.58;54.49;93415.06;5041197;28;20032;-90
2023/03/12 00:50:51;;;;;;;12.98;5.80;;;;;;;13.83;54.46;93415.41;5041187;28;20517;-90
2023/03/12 00:53:16;;;;;;;22.10;10.35;;;;;;;14.18;55.50;93410.06;5057528;28;20033;-90
2023/03/12 00:55:42;;;;;;;17.63;6.13;;;;;;;13.89;55.44;93408.88;5057537;28;20032;-91
2023/03/12 00:58:07;;;;;;;14.60;6.38;;;;;;;13.39;56.88;93413.50;5057604;28;20053;-91
2023/03/12 01:00:33;;;;;;;14.93;7.18;;;;;;;13.88;56.87;93409.97;5057424;28;20079;-91
2023/03/12 01:02:59;;;;;;;20.85;9.13;;;;;;;14.08;55.43;93418.31;5058904;28;20052;-91
2023/03/12 01:05:25;;;;;;;25.80;10.57;;;;;;;14.02;55.69;93422.97;5057560;28;20035;-91
2023/03/12 01:07:50;;;;;;;14.88;6.00;;;;;;;13.94;56.86;93429.00;5057315;28;20079;-90
2023/03/12 01:10:18;;;;;;;12.82;6.00;;;;;;;14.09;56.45;93433.03;5065164;28;20036;-91
2023/03/12 01:12:43;;;;;;;21.35;8.48;;;;;;;13.49;60.83;93432.75;5077064;28;20415;-90
2023/03/12 01:15:11;;;;;;;21.80;9.50;;;;;;;13.91;60.58;93438.31;5059483;28;20072;-91
2023/03/12 01:17:37;;;;;;;17.63;7.78;;;;;;;13.79;58.86;93440.81;5067260;28;20028;-90
2023/03/12 01:20:04;;;;;;;17.48;8.32;;;;;;;13.74;60.77;93439.09;5045423;28;20070;-91
2023/03/12 01:22:30;;;;;;;20.25;8.45;;;;;;;13.86;58.29;93443.72;5061562;28;20427;-90
2023/03/12 01:24:55;;;;;;;12.82;7.70;;;;;;;13.83;58.48;93444.34;5057014;28;20082;-90
2023/03/12 01:27:21;;;;;;;17.92;10.07;;;;;;;13.45;59.80;93443.09;5056857;28;20082;-90
2023/03/12 01:29:46;;;;;;;21.85;10.10;;;;;;;13.66;60.77;93445.13;5056679;28;20037;-90
2023/03/12 01:32:11;;;;;;;28.73;14.13;;;;;;;13.55;60.87;93448.03;5057042;28;20116;-90
2023/03/12 01:34:37;;;;;;;24.80;11.40;;;;;;;13.76;61.72;93447.44;5056796;28;20091;-90
2023/03/12 01:37:02;;;;;;;20.65;10.32;;;;;;;13.88;60.54;93456.59;5056663;28;20029;-90
2023/03/12 01:39:28;;;;;;;19.40;9.07;;;;;;;13.71;59.81;93450.25;5056597;28;20037;-90
2023/03/12 01:41:53;;;;;;;20.38;10.65;;;;;;;13.55;60.52;93449.91;5056693;28;20561;-91
2023/03/12 01:44:19;;;;;;;27.38;13.15;;;;;;;12.82;65.58;93459.75;5040134;28;20032;-90
2023/03/12 01:46:45;;;;;;;37.53;17.08;;;;;;;12.96;71.46;93462.28;5056413;28;20427;-90
2023/03/12 01:49:24;;;;;;;41.72;19.10;;;;;;;13.53;71.18;93452.09;5057482;28;20111;-90
2023/03/12 01:52:05;;;;;;;41.53;18.10;;;;;;;13.61;69.16;93464.47;5056452;28;20426;-90
2023/03/12 01:54:34;;;;;;;37.60;18.42;;;;;;;13.38;71.51;93469.81;5040000;28;20021;-90
2023/03/12 01:57:01;;;;;;;37.00;18.58;;;;;;;13.51;73.22;93470.03;5056261;28;20021;-90
2023/03/12 01:59:34;;;;;;;36.42;17.73;;;;;;;13.73;72.07;93473.63;5056254;28;20029;-90
2023/03/12 02:02:01;;;;;;;41.45;18.65;;;;;;;13.14;76.31;93480.75;5039802;28;20020;-90
2023/03/12 02:04:27;;;;;;;28.23;15.07;;;;;;;13.67;70.56;93473.78;5056228;28;20048;-91
2023/03/12 02:07:14;;;;;;;43.95;16.88;;;;;;;13.22;74.48;93474.72;5056128;28;20024;-90
2023/03/12 02:09:45;;;;;;;33.50;15.85;;;;;;;13.25;75.17;93482.00;5055926;28;20032;-91
2023/03/12 02:12:11;;;;;;;33.45;16.02;;;;;;;13.33;70.30;93487.59;5056104;28;20107;-90
2023/03/12 02:14:37;;;;;;;36.15;17.63;;;;;;;12.62;69.90;93497.06;5055218;28;20029;-90
2023/03/12 02:17:03;;;;;;;30.67;15.85;;;;;;;12.91;71.54;93495.81;5039560;28;20051;-90
2023/03/12 02:19:47;;;;;;;37.53;16.00;;;;;;;12.58;74.52;93491.66;5039053;28;20033;-90
2023/03/12 02:22:16;;;;;;;35.80;16.27;;;;;;;13.04;75.96;93494.16;5057007;28;20108;-90
2023/03/12 02:25:03;;;;;;;39.35;18.05;;;;;;;12.87;76.37;93491.16;5039469;28;20354;-90
2023/03/12 02:27:33;;;;;;;32.38;16.10;;;;;;;13.11;74.43;93495.28;5055852;28;20029;-90
2023/03/12 02:29:59;;;;;;;46.45;20.88;;;;;;;12.32;79.26;93504.59;5039224;28;20041;-89
2023/03/12 02:32:27;;;;;;;47.95;22.45;;;;;;;12.61;78.72;93503.38;5055973;28;20089;-90
2023/03/12 02:34:55;;;;;;;526.17;39.65;;;;;;;12.27;82.41;93506.28;5039288;28;20446;-90
2023/03/12 02:37:20;;;;;;;42.83;20.60;;;;;;;12.27;82.33;93508.16;5055942;28;20120;-90
2023/03/12 02:39:54;;;;;;;44.75;19.45;;;;;;;12.83;76.66;93511.25;5039463;28;20333;-90
2023/03/12 02:42:20;;;;;;;175.98;25.90;;;;;;;12.44;75.06;93523.22;5039506;28;20321;-90
2023/03/12 02:44:46;;;;;;;171.82;25.48;;;;;;;12.19;78.92;93530.63;5055577;28;20027;-89
2023/03/12 02:47:11;;;;;;;60.58;24.33;;;;;;;12.41;81.20;93531.72;5055861;28;20104;-90
2023/03/12 02:49:36;;;;;;;97.70;24.33;;;;;;;12.47;79.19;93532.38;5055479;28;20068;-90
2023/03/12 02:52:03;;;;;;;606.63;41.88;;;;;;;11.31;95.61;93529.78;5056587;28;20025;-90
2023/03/12 02:54:28;;;;;;;580.72;46.22;;;;;;;11.17;100.00;93533.19;5038768;28;20402;-89
2023/03/12 02:56:54;;;;;;;71.85;27.52;;;;;;;11.80;93.00;93537.22;5039245;28;20021;-90
2023/03/12 02:59:20;;;;;;;110.13;25.20;;;;;;;11.83;86.51;93547.91;5055190;28;20115;-90
2023/03/12 03:01:46;;;;;;;350.65;35.60;;;;;;;11.20;90.48;93555.44;5038985;28;20079;-90
2023/03/12 03:04:12;;;;;;;69.97;27.10;;;;;;;11.25;99.04;93559.81;5056555;28;20021;-90
2023/03/12 03:06:40;;;;;;;63.38;27.40;;;;;;;11.57;92.42;93561.56;5055352;28;20480;-90
2023/03/12 03:09:05;;;;;;;46.38;22.23;;;;;;;11.82;86.97;93571.81;5038479;28;20025;-89
2023/03/12 03:11:31;;;;;;;45.38;22.52;;;;;;;11.86;85.62;93572.78;5039053;28;20423;-89
2023/03/12 03:13:56;;;;;;;48.45;22.85;;;;;;;11.51;87.18;93577.69;5055438;28;20475;-90
2023/03/12 03:16:22;;;;;;;63.05;25.88;;;;;;;11.23;95.61;93585.53;5055074;28;20053;-90
2023/03/12 03:18:48;;;;;;;54.88;25.17;;;;;;;11.20;93.82;93592.13;5038654;28;20070;-90
2023/03/12 03:21:18;;;;;;;60.20;24.42;;;;;;;11.57;85.56;93590.41;5055048;28;20021;-90
2023/03/12 03:23:47;;;;;;;48.15;23.17;;;;;;;11.65;78.35;93593.41;5039018;28;20029;-90
2023/03/12 03:26:13;;;;;;;132.15;27.13;;;;;;;11.24;85.96;93602.84;5042126;28;20031;-89
2023/03/12 03:28:39;;;;;;;47.88;22.83;;;;;;;11.18;87.05;93604.75;5043022;28;20032;-90
2023/03/12 03:31:08;;;;;;;47.50;20.70;;;;;;;11.40;80.78;93605.94;5042551;28;20029;-89
2023/03/12 03:33:35;;;;;;;66.85;27.00;;;;;;;11.75;93.02;93614.22;5042268;28;20100;-90
2023/03/12 03:36:01;;;;;;;72.72;27.65;;;;;;;11.98;94.31;93616.94;5042584;28;20119;-90
2023/03/12 03:38:28;;;;;;;68.28;26.20;;;;;;;12.30;90.90;93612.59;5042392;28;20020;-90
2023/03/12 03:40:53;;;;;;;58.88;24.42;;;;;;;12.33;86.67;93611.22;5042505;28;20027;-89
2023/03/12 03:43:20;;;;;;;55.72;22.77;;;;;;;12.38;85.52;93611.13;5042055;28;20446;-90
2023/03/12 03:45:46;;;;;;;49.75;21.67;;;;;;;12.37;85.12;93614.81;5058875;28;20025;-90
2023/03/12 03:48:12;;;;;;;49.30;21.90;;;;;;;12.50;84.75;93610.59;5058645;28;20028;-90
2023/03/12 03:50:38;;;;;;;44.33;21.40;;;;;;;11.96;87.96;93627.72;5058670;28;20029;-89
2023/03/12 03:53:04;;;;;;;41.75;18.75;;;;;;;12.11;88.64;93624.00;5042446;28;20028;-89
2023/03/12 03:55:30;;;;;;;46.53;18.23;;;;;;;12.12;89.67;93637.91;5058874;28;20056;-90
2023/03/12 03:57:56;;;;;;;40.60;16.42;;;;;;;11.98;91.17;93637.94;5058448;28;20350;-90
2023/03/12 04:00:21;;;;;;;41.17;17.45;;;;;;;12.14;95.02;93643.66;5058533;28;20025;-89
2023/03/12 04:02:47;;;;;;;39.47;16.45;;;;;;;12.48;89.84;93652.16;5058840;28;20024;-90
2023/03/12 04:05:14;;;;;;;42.70;17.73;;;;;;;12.15;94.56;93653.09;5058437;28;20032;-90
2023/03/12 04:07:40;;;;;;;42.50;17.75;;;;;;;12.43;89.19;93648.56;5058427;28;20442;-90
2023/03/12 04:10:06;;;;;;;33.67;14.93;;;;;;;12.50;92.71;93657.88;5041765;28;20036;-90
2023/03/12 04:12:32;;;;;;;51.40;18.65;;;;;;;11.90;97.26;93655.09;5058353;28;20434;-91
2023/03/12 04:14:57;;;;;;;75.50;17.05;;;;;;;11.86;99.48;93651.53;5041906;28;20028;-90
2023/03/12 04:17:22;;;;;;;284.98;22.90;;;;;;;11.42;100.00;93658.91;5050166;28;20031;-90
2023/03/12 04:19:48;;;;;;;128.35;18.63;;;;;;;11.77;100.00;93671.66;5070793;28;20029;-90
2023/03/12 04:22:13;;;;;;;280.73;22.48;;;;;;;11.30;100.00;93672.47;5063970;28;20454;-91
2023/03/12 04:24:39;;;;;;;260.33;23.05;;;;;;;11.17;100.00;93680.00;5065771;28;20025;-90
2023/03/12 04:27:04;;;;;;;223.73;22.45;;;;;;;10.99;100.00;93678.22;5068514;28;20025;-90
2023/03/12 04:29:30;;;;;;;56.88;18.85;;;;;;;11.83;100.00;93700.13;5041326;28;20307;-90
2023/03/12 04:31:55;;;;;;;67.32;19.75;;;;;;;11.82;100.00;93693.31;5058014;28;20445;-90
2023/03/12 04:34:21;;;;;;;63.28;19.77;;;;;;;11.53;100.00;93701.47;5041615;28;20021;-91
2023/03/12 04:36:46;;;;;;;50.17;20.60;;;;;;;12.22;100.00;93698.13;5040725;28;20434;-90
2023/03/12 04:39:15;;;;;;;56.17;23.30;;;;;;;12.65;99.42;93702.22;5057784;28;20029;-90
2023/03/12 04:41:40;;;;;;;52.25;21.98;;;;;;;12.42;100.00;93699.56;5057783;28;20025;-91
2023/03/12 04:44:06;;;;;;;48.03;21.42;;;;;;;12.53;98.78;93701.94;5041056;28;20028;-90
2023/03/12 04:46:38;;;;;;;51.40;21.90;;;;;;;12.63;94.24;93704.38;5041345;28;20055;-90
2023/03/12 04:49:04;;;;;;;41.97;21.33;;;;;;;12.18;94.15;93707.63;5057823;28;20021;-90
2023/03/12 04:51:30;;;;;;;50.20;21.63;;;;;;;11.88;96.38;93713.16;5057508;28;20035;-90
2023/03/12 04:53:56;;;;;;;53.63;22.25;;;;;;;11.84;100.00;93714.03;5057622;28;20032;-90
2023/03/12 04:56:21;;;;;;;44.85;19.83;;;;;;;12.21;97.87;93714.94;5057794;28;20024;-90
2023/03/12 04:58:47;;;;;;;44.97;19.45;;;;;;;12.04;94.32;93714.75;5057355;28;20035;-90
2023/03/12 05:01:24;;;;;;;47.67;21.63;;;;;;;12.23;99.08;93722.53;5057418;28;20427;-90
2023/03/12 05:03:51;;;;;;;43.22;20.05;;;;;;;12.26;96.88;93722.72;5041057;28;20031;-90
2023/03/12 05:06:16;;;;;;;42.25;19.73;;;;;;;12.19;94.34;93729.44;5057362;28;20056;-90
2023/03/12 05:08:42;;;;;;;48.47;22.77;;;;;;;11.88;98.67;93726.28;5057435;28;20056;-90
2023/03/12 05:11:07;;;;;;;53.67;23.77;;;;;;;11.61;100.00;93727.00;5057205;28;20381;-90
2023/03/12 05:13:32;;;;;;;50.95;22.92;;;;;;;11.88;97.33;93725.50;5057270;28;20123;-89
2023/03/12 05:15:58;;;;;;;46.30;22.55;;;;;;;11.99;95.95;93734.00;5058943;28;20051;-89
2023/03/12 05:18:25;;;;;;;49.58;21.85;;;;;;;11.73;97.76;93745.69;5057797;28;20021;-90
2023/03/12 05:21:15;;;;;;;45.03;21.20;;;;;;;12.04;93.81;93741.00;5057048;28;20074;-90
2023/03/12 05:23:41;;;;;;;41.33;19.73;;;;;;;11.69;95.29;93746.56;5057284;28;20035;-89
2023/03/12 05:26:36;;;;;;;42.13;21.55;;;;;;;11.96;93.25;93745.03;5057201;28;20025;-90
2023/03/12 05:29:03;;;;;;;50.92;22.90;;;;;;;11.20;100.00;93751.31;5057453;28;20041;-90
2023/03/12 05:31:31;;;;;;;56.40;25.48;;;;;;;11.28;100.00;93755.88;5040423;28;20401;-90
2023/03/12 05:33:58;;;;;;;59.00;25.13;;;;;;;10.98;100.00;93753.47;5056817;28;20070;-90
2023/03/12 05:36:23;;;;;;;57.80;26.90;;;;;;;11.84;100.00;93761.28;5056969;28;20036;-90
2023/03/12 05:38:49;;;;;;;61.63;27.77;;;;;;;12.53;100.00;93767.63;5056833;28;20029;-90
2023/03/12 05:41:20;;;;;;;71.68;27.25;;;;;;;12.48;99.45;93770.38;5056992;28;20028;-90
2023/03/12 05:43:46;;;;;;;66.97;28.95;;;;;;;12.53;100.00;93778.16;5057875;28;20033;-90
2023/03/12 05:46:12;;;;;;;63.72;27.92;;;;;;;13.04;99.49;93778.16;5056766;28;20028;-90
2023/03/12 05:48:37;;;;;;;59.53;27.48;;;;;;;13.30;96.25;93775.72;5039549;28;20032;-90
2023/03/12 05:51:03;;;;;;;70.00;28.63;;;;;;;13.18;100.00;93786.00;5056933;28;20029;-91
2023/03/12 05:53:28;;;;;;;64.90;28.67;;;;;;;13.19;96.79;93790.97;5056448;28;20060;-90
2023/03/12 05:55:54;;;;;;;70.10;29.27;;;;;;;13.22;99.52;93795.63;5056493;28;20029;-91
2023/03/12 05:58:19;;;;;;;83.88;30.83;;;;;;;13.23;100.00;93799.06;5056113;28;20024;-90
2023/03/12 06:00:45;;;;;;;58.60;26.25;;;;;;;13.82;99.12;93796.38;5056202;28;20024;-90
2023/03/12 06:03:10;;;;;;;59.58;25.52;;;;;;;13.80;96.54;93798.53;5056251;28;20402;-90
2023/03/12 06:05:36;;;;;;;58.70;23.35;;;;;;;13.77;100.00;93799.13;5056306;28;20082;-90
2023/03/12 06:08:03;;;;;;;55.30;25.70;;;;;;;14.35;96.39;93812.44;5056444;28;20134;-90
2023/03/12 06:10:29;;;;;;;55.85;24.35;;;;;;;14.12;96.21;93814.34;5056160;28;20434;-90
2023/03/12 06:12:55;;;;;;;57.67;24.85;;;;;;;14.13;88.30;93810.63;5056348;28;20082;-91
2023/03/12 06:15:20;;;;;;;42.60;21.65;;;;;;;14.37;90.03;93814.78;5056054;28;20032;-90
2023/03/12 06:17:46;;;;;;;43.80;21.42;;;;;;;14.39;88.83;93826.53;5056010;28;20024;-90
2023/03/12 06:20:11;;;;;;;47.10;20.88;;;;;;;14.07;86.41;93835.56;5056185;28;20017;-90
2023/03/12 06:22:37;;;;;;;43.25;19.88;;;;;;;14.58;85.24;93836.09;5056027;28;20024;-91
2023/03/12 06:25:03;;;;;;;41.47;18.48;;;;;;;13.96;82.11;93833.16;5055836;28;20131;-90
2023/03/12 06:27:29;;;;;;;44.38;21.67;;;;;;;14.33;84.68;93838.31;5055892;28;20029;-90
2023/03/12 06:29:54;;;;;;;43.05;19.83;;;;;;;14.25;84.03;93841.66;5056883;28;20032;-90
2023/03/12 06:32:20;;;;;;;43.28;20.80;;;;;;;14.04;84.55;93839.56;5039393;28;20572;-91
2023/03/12 06:34:45;;;;;;;48.13;21.33;;;;;;;14.40;80.75;93836.00;5055992;28;20074;-92
2023/03/12 06:37:11;;;;;;;43.08;19.75;;;;;;;14.28;81.99;93846.34;5038927;28;20025;-91
2023/03/12 06:39:37;;;;;;;43.55;19.30;;;;;;;14.47;83.33;93851.38;5055808;28;20024;-91
2023/03/12 06:42:02;;;;;;;41.75;20.60;;;;;;;14.20;79.92;93855.78;5056172;28;20319;-91
2023/03/12 06:44:28;;;;;;;45.72;16.67;;;;;;;13.99;87.23;93858.13;5055780;28;20029;-91
2023/03/12 06:46:53;;;;;;;36.28;14.43;;;;;;;13.81;96.24;93865.13;5055625;28;20465;-90
2023/03/12 06:49:19;;;;;;;44.20;20.77;;;;;;;14.10;87.69;93859.41;5055386;28;20024;-91
2023/03/12 06:51:44;;;;;;;43.70;19.83;;;;;;;14.23;85.70;93870.97;5055512;28;20031;-90
2023/03/12 06:54:10;;;;;;;43.72;19.73;;;;;;;14.03;87.74;93874.09;5055534;28;20339;-92
2023/03/12 06:56:35;;;;;;;37.75;18.10;;;;;;;14.68;84.69;93879.84;5055504;28;20027;-92
2023/03/12 06:59:01;;;;;;;36.38;17.15;;;;;;;14.97;81.10;93883.84;5055399;28;20032;-91
2023/03/12 07:01:26;;;;;;;39.67;17.33;;;;;;;14.76;82.02;93881.75;5055476;28;20017;-92
2023/03/12 07:03:52;;;;;;;36.97;17.20;;;;;;;14.79;84.01;93891.72;5055784;28;20028;-91
2023/03/12 07:06:20;;;;;;;41.33;17.83;;;;;;;14.48;88.88;93891.69;5055572;28;20029;-92
2023/03/12 07:08:45;;;;;;;41.10;17.13;;;;;;;13.50;97.66;93903.44;5074922;28;20021;-92
2023/03/12 07:11:11;;;;;;;46.33;17.38;;;;;;;13.60;99.22;93897.19;5075385;28;20077;-92
2023/03/12 07:13:37;;;;;;;38.25;15.73;;;;;;;14.19;95.49;93901.63;5075503;28;20028;-92
2023/03/12 07:16:03;;;;;;;36.72;14.40;;;;;;;14.52;95.13;93905.81;5075336;28;20111;-92
2023/03/12 07:18:28;;;;;;;29.83;13.27;;;;;;;15.16;88.62;93917.09;5058866;28;20499;-92
2023/03/12 07:20:53;;;;;;;31.15;13.45;;;;;;;14.70;92.63;93917.22;5075366;28;20044;-92
2023/03/12 07:23:19;;;;;;;33.50;12.68;;;;;;;14.44;93.41;93912.59;5075319;28;20024;-91
2023/03/12 07:25:45;;;;;;;32.15;12.32;;;;;;;14.76;91.62;93910.00;5075320;28;20027;-92
2023/03/12 07:28:11;;;;;;;39.38;14.40;;;;;;;14.81;90.70;93921.19;5058690;28;20024;-92
2023/03/12 07:30:36;;;;;;;28.67;11.00;;;;;;;15.08;88.94;93924.69;5075151;28;20568;-91
2023/03/12 07:33:03;;;;;;;33.95;12.23;;;;;;;15.71;85.15;93922.91;5055418;28;20052;-92
2023/03/12 07:35:30;;;;;;;25.08;10.75;;;;;;;15.94;80.66;93927.00;5055188;28;20060;-92
2023/03/12 07:37:55;;;;;;;29.98;11.75;;;;;;;15.66;79.51;93931.75;5038700;28;20025;-90
2023/03/12 07:40:21;;;;;;;35.55;13.60;;;;;;;15.80;80.57;93936.91;5055395;28;20430;-90
2023/03/12 07:42:46;;;;;;;29.63;13.63;;;;;;;15.38;81.03;93942.59;5038650;28;20025;-89
2023/03/12 07:45:12;;;;;;;25.38;12.07;;;;;;;15.20;83.99;93947.06;5055471;28;20025;-91
2023/03/12 07:47:37;;;;;;;36.70;17.27;;;;;;;15.30;85.20;93944.13;5055198;28;20434;-90
2023/03/12 07:50:03;;;;;;;38.45;17.73;;;;;;;15.45;79.86;93947.44;5055920;28;20021;-90
2023/03/12 07:52:28;;;;;;;36.55;17.23;;;;;;;16.08;75.07;93942.66;5055222;28;20044;-89
2023/03/12 07:54:55;;;;;;;38.10;16.02;;;;;;;16.32;70.28;93946.69;5045771;28;20021;-90
2023/03/12 07:57:21;;;;;;;35.58;17.33;;;;;;;16.27;68.13;93954.78;5058413;28;20123;-90
2023/03/12 07:59:46;;;;;;;38.25;17.15;;;;;;;15.94;70.95;93957.91;5074737;28;20048;-91
2023/03/12 08:02:12;;;;;;;40.53;19.08;;;;;;;15.42;71.49;93962.00;5074810;28;20024;-91
2023/03/12 08:04:37;;;;;;;38.08;17.65;;;;;;;16.24;66.57;93960.69;5058237;28;20036;-89
2023/03/12 08:07:03;;;;;;;43.83;19.00;;;;;;;16.64;67.17;93970.25;5056013;28;20024;-90
2023/03/12 08:09:29;;;;;;;46.67;18.77;;;;;;;16.48;67.05;93972.63;5074643;28;20040;-90
2023/03/12 08:11:54;;;;;;;44.30;19.50;;;;;;;17.19;65.77;93976.66;5075929;28;20454;-90
2023/03/12 08:14:20;;;;;;;36.65;17.45;;;;;;;16.42;69.02;93974.66;5061970;28;20048;-90
2023/03/12 08:16:45;;;;;;;46.58;18.13;;;;;;;17.22;65.42;93978.66;5078361;28;20024;-89
2023/03/12 08:19:10;;;;;;;39.08;18.00;;;;;;;16.63;68.33;93982.72;5078460;28;20035;-88
2023/03/12 08:21:36;;;;;;;41.80;18.13;;;;;;;16.98;65.94;93991.63;5078506;28;20020;-89
2023/03/12 08:24:02;;;;;;;37.65;16.48;;;;;;;16.92;67.85;93993.69;5078406;28;20107;-89
2023/03/12 08:26:27;;;;;;;25.77;12.48;;;;;;;17.34;66.27;93987.78;5078675;28;20025;-91
2023/03/12 08:28:53;;;;;;;27.45;11.63;;;;;;;17.40;63.62;93997.09;5078013;28;20452;-93
2023/03/12 08:31:18;;;;;;;24.30;13.38;;;;;;;17.20;66.51;93996.72;5061543;28;20123;-91
2023/03/12 08:33:45;;;;;;;34.13;12.30;;;;;;;17.27;65.92;94004.19;5061606;28;20024;-92
2023/03/12 08:36:11;;;;;;;28.40;11.75;;;;;;;16.81;69.81;94015.19;5062106;28;20074;-91
2023/03/12 08:38:37;;;;;;;34.15;11.75;;;;;;;16.70;71.91;94013.97;5077963;28;20028;-91
2023/03/12 08:41:02;;;;;;;28.60;12.25;;;;;;;17.18;70.59;94008.72;5078246;28;20017;-91
2023/03/12 08:43:28;;;;;;;25.38;11.73;;;;;;;17.95;62.70;94011.28;5078108;28;20346;-89
2023/03/12 08:45:57;;;;;;;32.97;16.23;;;;;;;18.43;62.36;94005.00;5078162;28;20430;-90
2023/03/12 08:48:23;;;;;;;32.40;15.35;;;;;;;19.06;59.92;94010.16;5061152;28;20078;-89
2023/03/12 08:50:49;;;;;;;33.75;15.80;;;;;;;19.03;58.24;94016.16;5079088;28;20021;-90
2023/03/12 08:53:14;;;;;;;29.40;14.48;;;;;;;19.52;57.11;94009.34;5061176;28;20411;-90
2023/03/12 08:55:40;;;;;;;29.58;13.57;;;;;;;19.20;56.62;94022.34;5077769;28;20024;-89
2023/03/12 08:58:05;;;;;;;21.17;9.90;;;;;;;19.25;54.69;94018.72;5061040;28;20488;-90
2023/03/12 09:00:30;;;;;;;23.52;9.60;;;;;;;19.85;55.10;94021.69;5060849;28;20414;-90
2023/03/12 09:02:57;;;;;;;23.38;10.65;;;;;;;19.43;54.75;94025.38;5060883;28;20410;-89
2023/03/12 09:05:24;;;;;;;25.77;11.43;;;;;;;20.31;52.83;94026.84;5061030;28;20024;-90
2023/03/12 09:07:56;;;;;;;30.25;12.23;;;;;;;19.33;55.22;94031.13;5077344;28;20028;-90
2023/03/12 09:10:22;;;;;;;32.25;14.55;;;;;;;19.02;54.54;94029.75;5060664;28;20032;-92
2023/03/12 09:12:48;;;;;;;26.35;13.73;;;;;;;18.68;57.16;94021.78;5061217;28;20028;-93
2023/03/12 09:15:13;;;;;;;31.80;12.48;;;;;;;18.82;56.50;94024.16;5077362;28;20027;-91
2023/03/12 09:17:41;;;;;;;25.17;11.65;;;;;;;19.08;56.55;94025.78;5078366;28;20031;-91
2023/03/12 09:20:08;;;;;;;27.17;12.68;;;;;;;18.39;57.66;94027.97;5077136;28;20017;-92
2023/03/12 09:22:35;;;;;;;21.35;10.43;;;;;;;19.92;54.10;94035.22;5076600;28;20020;-92
2023/03/12 09:25:03;;;;;;;24.17;10.95;;;;;;;19.99;54.26;94039.22;5060322;28;20052;-89
2023/03/12 09:27:28;;;;;;;24.88;11.30;;;;;;;19.68;52.29;94041.31;5076998;28;20453;-90
2023/03/12 09:29:54;;;;;;;21.92;11.70;;;;;;;19.56;53.07;94043.97;5076807;28;20032;-90
2023/03/12 09:32:19;;;;;;;23.90;10.63;;;;;;;19.46;53.80;94040.66;5076957;28;20020;-90
2023/03/12 09:34:45;;;;;;;28.90;11.57;;;;;;;19.51;53.84;94039.66;5060293;28;20021;-89
2023/03/12 09:37:10;;;;;;;23.33;11.98;;;;;;;19.32;54.48;94037.56;5060384;28;20402;-90
2023/03/12 09:39:36;;;;;;;28.70;12.70;;;;;;;17.84;56.96;94047.19;5076692;28;20353;-90
2023/03/12 09:42:04;;;;;;;25.02;12.65;;;;;;;18.07;57.72;94052.22;5076680;28;20032;-90
2023/03/12 09:44:34;;;;;;;28.05;13.43;;;;;;;18.21;59.19;94044.78;5060190;28;20052;-90
2023/03/12 09:47:04;;;;;;;31.27;12.75;;;;;;;18.07;58.37;94045.06;5060107;28;20495;-89
2023/03/12 09:49:52;;;;;;;24.33;12.00;;;;;;;18.43;59.26;94050.88;5076668;28;20050;-90
2023/03/12 09:52:31;;;;;;;31.10;12.32;;;;;;;18.48;59.97;94048.00;5077229;28;20082;-91
2023/03/12 09:55:02;;;;;;;29.08;13.32;;;;;;;18.43;60.38;94050.09;5076743;28;20055;-90
2023/03/12 09:57:31;;;;;;;30.95;12.85;;;;;;;18.16;61.04;94047.63;5059836;28;20055;-90
2023/03/12 09:59:56;;;;;;;28.73;13.40;;;;;;;17.68;63.69;94046.97;5076338;28;20438;-91
2023/03/12 10:02:43;;;;;;;28.15;13.32;;;;;;;18.47;60.88;94045.69;5076331;28;20029;-90
2023/03/12 10:05:30;;;;;;;23.95;12.68;;;;;;;18.28;61.14;94044.28;5077393;28;20088;-90
2023/03/12 10:08:09;;;;;;;26.05;12.32;;;;;;;18.12;60.26;94046.75;5045816;28;20025;-91
2023/03/12 10:10:47;;;;;;;26.48;13.00;;;;;;;18.11;63.85;94050.50;5039621;28;20033;-91
2023/03/12 10:13:36;;;;;;;26.65;14.07;;;;;;;18.01;64.80;94053.50;5056275;28;20035;-91
2023/03/12 10:16:20;;;;;;;31.58;14.50;;;;;;;17.90;63.75;94050.44;5055888;28;20345;-91
2023/03/12 10:18:45;;;;;;;26.85;12.93;;;;;;;18.44;60.75;94055.06;5055856;28;20032;-90
2023/03/12 10:21:23;;;;;;;29.80;13.18;;;;;;;18.67;58.95;94057.41;5056260;28;20120;-90
2023/03/12 10:24:30;;;;;;;31.60;14.75;;;;;;;18.77;59.48;94064.94;5056079;28;20059;-90
2023/03/12 10:26:57;;;;;;;29.00;13.98;;;;;;;18.11;62.00;94049.72;5059265;28;20048;-92
2023/03/12 10:29:35;;;;;;;33.95;15.02;;;;;;;18.73;62.42;94052.66;5038953;28;20338;-91
2023/03/12 10:32:15;;;;;;;35.90;15.35;;;;;;;18.73;62.00;94056.06;5039423;28;20037;-91
2023/03/12 10:35:06;;;;;;;27.85;14.45;;;;;;;19.17;57.41;94061.00;5055359;28;20434;-89
2023/03/12 10:37:55;;;;;;;32.33;16.35;;;;;;;19.08;56.14;94057.66;5039538;28;20032;-90
2023/03/12 10:40:27;;;;;;;39.72;15.85;;;;;;;18.67;59.13;94054.75;5055423;28;20396;-90
2023/03/12 10:42:53;;;;;;;32.33;15.93;;;;;;;19.07;60.73;94053.44;5056819;28;20060;-90
2023/03/12 10:45:26;;;;;;;32.53;16.92;;;;;;;19.18;62.47;94051.91;5055522;28;20106;-90
2023/03/12 10:47:56;;;;;;;37.70;16.30;;;;;;;19.24;59.64;94049.03;5055885;28;20025;-90
2023/03/12 10:50:27;;;;;;;48.67;17.88;;;;;;;19.12;60.38;94047.91;5055027;28;20347;-90
2023/03/12 10:53:21;;;;;;;35.13;16.17;;;;;;;19.48;59.00;94058.91;5039079;28;20024;-90
2023/03/12 10:56:11;;;;;;;36.47;16.05;;;;;;;19.64;58.32;94062.44;5055501;28;20025;-90
2023/03/12 10:58:39;;;;;;;34.40;15.50;;;;;;;19.68;57.31;94061.81;5038464;28;20037;-90
2023/03/12 11:01:30;;;;;;;35.00;15.65;;;;;;;19.81;57.50;94058.03;5055388;28;20021;-90
2023/03/12 11:04:26;;;;;;;37.17;16.70;;;;;;;19.39;57.90;94060.91;5055221;28;20064;-90
2023/03/12 11:07:31;;;;;;;35.67;16.55;;;;;;;19.48;56.67;94064.22;5039270;28;20036;-90
2023/03/12 11:10:05;;;;;;;36.42;16.38;;;;;;;19.76;59.66;94068.88;5001063;28;20041;-90
2023/03/12 11:12:33;;;;;;;37.90;17.63;;;;;;;19.82;57.90;94064.91;5034696;28;20034;-91
2023/03/12 11:14:59;;;;;;;37.30;15.55;;;;;;;19.92;55.52;94071.69;5045863;28;20084;-90
2023/03/12 11:17:27;;;;;;;36.92;15.73;;;;;;;19.62;55.59;94069.97;5038808;28;20071;-90
2023/03/12 11:19:53;;;;;;;36.92;16.73;;;;;;;19.67;55.61;94073.56;5038669;28;20035;-89
2023/03/12 11:22:33;;;;;;;40.70;16.45;;;;;;;20.26;55.16;94082.16;5055725;28;20123;-90